sensor_id;sensor_type;location;lat;lon;timestamp;temperature;humidity
46139;DHT22;32398;49.112;8.598;2023-05-19T00:00:17;15.00;62.80
46139;DHT22;32398;49.112;8.598;2023-05-19T00:02:44;14.90;62.80
46139;DHT22;32398;49.112;8.598;2023-05-19T00:05:10;14.90;62.90
46139;DHT22;32398;49.112;8.598;2023-05-19T00:07:39;14.90;63.00
46139;DHT22;32398;49.112;8.598;2023-05-19T00:10:07;14.80;63.10
46139;DHT22;32398;49.112;8.598;2023-05-19T00:12:33;14.80;63.20
46139;DHT22;32398;49.112;8.598;2023-05-19T00:15:01;14.80;63.30
46139;DHT22;32398;49.112;8.598;2023-05-19T00:17:29;14.70;63.30
46139;DHT22;32398;49.112;8.598;2023-05-19T00:19:58;14.70;63.40
46139;DHT22;32398;49.112;8.598;2023-05-19T00:22:25;14.70;63.50
46139;DHT22;32398;49.112;8.598;2023-05-19T00:24:52;14.60;63.50
46139;DHT22;32398;49.112;8.598;2023-05-19T00:27:18;14.60;63.60
46139;DHT22;32398;49.112;8.598;2023-05-19T00:29:45;14.60;63.70
46139;DHT22;32398;49.112;8.598;2023-05-19T00:32:11;14.50;63.70
46139;DHT22;32398;49.112;8.598;2023-05-19T00:34:39;14.50;63.90
46139;DHT22;32398;49.112;8.598;2023-05-19T00:37:06;14.50;63.90
46139;DHT22;32398;49.112;8.598;2023-05-19T00:39:33;14.40;64.10
46139;DHT22;32398;49.112;8.598;2023-05-19T00:41:59;14.40;64.10
46139;DHT22;32398;49.112;8.598;2023-05-19T00:44:27;14.40;64.30
46139;DHT22;32398;49.112;8.598;2023-05-19T00:46:53;14.40;64.30
46139;DHT22;32398;49.112;8.598;2023-05-19T00:49:20;14.40;64.30
46139;DHT22;32398;49.112;8.598;2023-05-19T00:51:47;14.30;64.30
46139;DHT22;32398;49.112;8.598;2023-05-19T00:54:14;14.30;64.40
46139;DHT22;32398;49.112;8.598;2023-05-19T00:56:41;14.20;64.50
46139;DHT22;32398;49.112;8.598;2023-05-19T00:59:07;14.20;64.70
46139;DHT22;32398;49.112;8.598;2023-05-19T01:01:34;14.20;64.80
46139;DHT22;32398;49.112;8.598;2023-05-19T01:04:01;14.20;64.80
46139;DHT22;32398;49.112;8.598;2023-05-19T01:06:28;14.20;64.80
46139;DHT22;32398;49.112;8.598;2023-05-19T01:08:56;14.10;64.90
46139;DHT22;32398;49.112;8.598;2023-05-19T01:11:22;14.10;65.10
46139;DHT22;32398;49.112;8.598;2023-05-19T01:13:49;14.10;65.20
46139;DHT22;32398;49.112;8.598;2023-05-19T01:16:17;14.00;65.10
46139;DHT22;32398;49.112;8.598;2023-05-19T01:18:49;14.00;65.20
46139;DHT22;32398;49.112;8.598;2023-05-19T01:21:25;14.00;65.30
46139;DHT22;32398;49.112;8.598;2023-05-19T01:24:05;13.90;65.40
46139;DHT22;32398;49.112;8.598;2023-05-19T01:26:42;13.90;65.60
46139;DHT22;32398;49.112;8.598;2023-05-19T01:29:21;13.90;65.70
46139;DHT22;32398;49.112;8.598;2023-05-19T01:31:54;13.90;65.90
46139;DHT22;32398;49.112;8.598;2023-05-19T01:34:21;13.80;65.80
46139;DHT22;32398;49.112;8.598;2023-05-19T01:36:48;13.80;65.90
46139;DHT22;32398;49.112;8.598;2023-05-19T01:39:16;13.80;66.00
46139;DHT22;32398;49.112;8.598;2023-05-19T01:41:43;13.70;66.10
46139;DHT22;32398;49.112;8.598;2023-05-19T01:44:10;13.70;66.20
46139;DHT22;32398;49.112;8.598;2023-05-19T01:46:37;13.70;66.10
46139;DHT22;32398;49.112;8.598;2023-05-19T01:49:05;13.70;66.20
46139;DHT22;32398;49.112;8.598;2023-05-19T01:51:32;13.60;66.20
46139;DHT22;32398;49.112;8.598;2023-05-19T01:53:58;13.60;66.20
46139;DHT22;32398;49.112;8.598;2023-05-19T01:56:26;13.60;66.30
46139;DHT22;32398;49.112;8.598;2023-05-19T01:58:58;13.60;66.30
46139;DHT22;32398;49.112;8.598;2023-05-19T02:01:29;13.60;66.40
46139;DHT22;32398;49.112;8.598;2023-05-19T02:04:08;13.50;66.30
46139;DHT22;32398;49.112;8.598;2023-05-19T02:06:39;13.50;66.40
46139;DHT22;32398;49.112;8.598;2023-05-19T02:09:09;13.50;66.50
46139;DHT22;32398;49.112;8.598;2023-05-19T02:11:39;13.40;66.50
46139;DHT22;32398;49.112;8.598;2023-05-19T02:14:07;13.40;66.60
46139;DHT22;32398;49.112;8.598;2023-05-19T02:16:34;13.40;66.80
46139;DHT22;32398;49.112;8.598;2023-05-19T02:19:01;13.40;66.90
46139;DHT22;32398;49.112;8.598;2023-05-19T02:21:29;13.40;67.00
46139;DHT22;32398;49.112;8.598;2023-05-19T02:23:56;13.40;67.10
46139;DHT22;32398;49.112;8.598;2023-05-19T02:26:22;13.30;67.10
46139;DHT22;32398;49.112;8.598;2023-05-19T02:28:49;13.30;67.20
46139;DHT22;32398;49.112;8.598;2023-05-19T02:31:16;13.30;67.30
46139;DHT22;32398;49.112;8.598;2023-05-19T02:33:42;13.30;67.30
46139;DHT22;32398;49.112;8.598;2023-05-19T02:36:09;13.20;67.40
46139;DHT22;32398;49.112;8.598;2023-05-19T02:38:37;13.20;67.50
46139;DHT22;32398;49.112;8.598;2023-05-19T02:41:03;13.20;67.60
46139;DHT22;32398;49.112;8.598;2023-05-19T02:43:30;13.20;68.40
46139;DHT22;32398;49.112;8.598;2023-05-19T02:45:56;13.20;67.70
46139;DHT22;32398;49.112;8.598;2023-05-19T02:48:23;13.10;67.70
46139;DHT22;32398;49.112;8.598;2023-05-19T02:50:50;13.10;67.80
46139;DHT22;32398;49.112;8.598;2023-05-19T02:53:16;13.10;67.90
46139;DHT22;32398;49.112;8.598;2023-05-19T02:55:44;13.10;68.00
46139;DHT22;32398;49.112;8.598;2023-05-19T02:58:11;13.10;68.10
46139;DHT22;32398;49.112;8.598;2023-05-19T03:00:37;13.00;68.10
46139;DHT22;32398;49.112;8.598;2023-05-19T03:03:04;13.00;68.00
46139;DHT22;32398;49.112;8.598;2023-05-19T03:05:30;13.00;68.00
46139;DHT22;32398;49.112;8.598;2023-05-19T03:07:57;12.90;68.00
46139;DHT22;32398;49.112;8.598;2023-05-19T03:10:24;12.90;68.10
46139;DHT22;32398;49.112;8.598;2023-05-19T03:12:52;12.90;68.10
46139;DHT22;32398;49.112;8.598;2023-05-19T03:15:18;12.90;68.20
46139;DHT22;32398;49.112;8.598;2023-05-19T03:17:47;12.90;68.20
46139;DHT22;32398;49.112;8.598;2023-05-19T03:20:14;12.90;68.30
46139;DHT22;32398;49.112;8.598;2023-05-19T03:22:41;12.90;68.40
46139;DHT22;32398;49.112;8.598;2023-05-19T03:25:07;12.80;68.40
46139;DHT22;32398;49.112;8.598;2023-05-19T03:27:34;12.80;68.40
46139;DHT22;32398;49.112;8.598;2023-05-19T03:30:02;12.80;68.50
46139;DHT22;32398;49.112;8.598;2023-05-19T03:32:29;12.80;68.50
46139;DHT22;32398;49.112;8.598;2023-05-19T03:34:56;12.80;68.60
46139;DHT22;32398;49.112;8.598;2023-05-19T03:37:23;12.70;68.60
46139;DHT22;32398;49.112;8.598;2023-05-19T03:39:49;12.70;68.60
46139;DHT22;32398;49.112;8.598;2023-05-19T03:42:16;12.70;69.30
46139;DHT22;32398;49.112;8.598;2023-05-19T03:44:42;12.70;68.50
46139;DHT22;32398;49.112;8.598;2023-05-19T03:47:11;12.70;68.50
46139;DHT22;32398;49.112;8.598;2023-05-19T03:49:37;12.70;68.50
46139;DHT22;32398;49.112;8.598;2023-05-19T03:52:04;12.70;68.50
46139;DHT22;32398;49.112;8.598;2023-05-19T03:54:31;12.60;68.50
46139;DHT22;32398;49.112;8.598;2023-05-19T03:56:57;12.60;68.50
46139;DHT22;32398;49.112;8.598;2023-05-19T03:59:24;12.60;68.50
46139;DHT22;32398;49.112;8.598;2023-05-19T04:01:50;12.60;68.50
46139;DHT22;32398;49.112;8.598;2023-05-19T04:04:18;12.60;68.60
46139;DHT22;32398;49.112;8.598;2023-05-19T04:06:45;12.60;68.60
46139;DHT22;32398;49.112;8.598;2023-05-19T04:09:13;12.50;68.60
46139;DHT22;32398;49.112;8.598;2023-05-19T04:11:40;12.50;68.60
46139;DHT22;32398;49.112;8.598;2023-05-19T04:14:07;12.50;68.70
46139;DHT22;32398;49.112;8.598;2023-05-19T04:16:33;12.60;68.80
46139;DHT22;32398;49.112;8.598;2023-05-19T04:19:00;12.50;68.80
46139;DHT22;32398;49.112;8.598;2023-05-19T04:21:28;12.50;68.80
46139;DHT22;32398;49.112;8.598;2023-05-19T04:23:54;12.50;68.90
46139;DHT22;32398;49.112;8.598;2023-05-19T04:26:23;12.50;69.00
46139;DHT22;32398;49.112;8.598;2023-05-19T04:28:51;12.50;69.00
46139;DHT22;32398;49.112;8.598;2023-05-19T04:31:18;12.50;69.90
46139;DHT22;32398;49.112;8.598;2023-05-19T04:33:45;12.40;69.10
46139;DHT22;32398;49.112;8.598;2023-05-19T04:36:13;12.40;69.90
46139;DHT22;32398;49.112;8.598;2023-05-19T04:38:43;12.40;69.20
46139;DHT22;32398;49.112;8.598;2023-05-19T04:41:11;12.40;69.30
46139;DHT22;32398;49.112;8.598;2023-05-19T04:43:37;12.40;69.40
46139;DHT22;32398;49.112;8.598;2023-05-19T04:46:05;12.40;69.40
46139;DHT22;32398;49.112;8.598;2023-05-19T04:48:34;12.40;69.40
46139;DHT22;32398;49.112;8.598;2023-05-19T04:51:00;12.40;69.50
46139;DHT22;32398;49.112;8.598;2023-05-19T04:53:27;12.40;69.60
46139;DHT22;32398;49.112;8.598;2023-05-19T04:55:55;12.40;69.60
46139;DHT22;32398;49.112;8.598;2023-05-19T04:58:21;12.40;69.70
46139;DHT22;32398;49.112;8.598;2023-05-19T05:00:50;12.30;69.80
46139;DHT22;32398;49.112;8.598;2023-05-19T05:03:16;12.30;69.80
46139;DHT22;32398;49.112;8.598;2023-05-19T05:05:43;12.30;69.80
46139;DHT22;32398;49.112;8.598;2023-05-19T05:08:10;12.30;69.90
46139;DHT22;32398;49.112;8.598;2023-05-19T05:10:36;12.30;69.90
46139;DHT22;32398;49.112;8.598;2023-05-19T05:13:04;12.30;70.00
46139;DHT22;32398;49.112;8.598;2023-05-19T05:15:31;12.30;70.00
46139;DHT22;32398;49.112;8.598;2023-05-19T05:17:58;12.30;70.00
46139;DHT22;32398;49.112;8.598;2023-05-19T05:20:25;12.30;70.00
46139;DHT22;32398;49.112;8.598;2023-05-19T05:22:52;12.30;70.00
46139;DHT22;32398;49.112;8.598;2023-05-19T05:25:19;12.30;70.00
46139;DHT22;32398;49.112;8.598;2023-05-19T05:27:45;12.30;70.00
46139;DHT22;32398;49.112;8.598;2023-05-19T05:30:13;12.30;70.10
46139;DHT22;32398;49.112;8.598;2023-05-19T05:32:40;12.30;70.10
46139;DHT22;32398;49.112;8.598;2023-05-19T05:35:06;12.30;70.20
46139;DHT22;32398;49.112;8.598;2023-05-19T05:37:33;12.30;70.10
46139;DHT22;32398;49.112;8.598;2023-05-19T05:40:00;12.30;70.20
46139;DHT22;32398;49.112;8.598;2023-05-19T05:42:26;12.30;70.10
46139;DHT22;32398;49.112;8.598;2023-05-19T05:44:53;12.30;70.20
46139;DHT22;32398;49.112;8.598;2023-05-19T05:47:21;12.30;70.20
46139;DHT22;32398;49.112;8.598;2023-05-19T05:49:48;12.30;70.20
46139;DHT22;32398;49.112;8.598;2023-05-19T05:52:14;12.30;70.10
46139;DHT22;32398;49.112;8.598;2023-05-19T05:54:43;12.30;70.10
46139;DHT22;32398;49.112;8.598;2023-05-19T05:57:10;12.30;70.20
46139;DHT22;32398;49.112;8.598;2023-05-19T05:59:37;12.30;70.20
46139;DHT22;32398;49.112;8.598;2023-05-19T06:02:05;12.30;70.10
46139;DHT22;32398;49.112;8.598;2023-05-19T06:04:34;12.30;70.20
46139;DHT22;32398;49.112;8.598;2023-05-19T06:07:00;12.30;70.20
46139;DHT22;32398;49.112;8.598;2023-05-19T06:09:27;12.30;70.20
46139;DHT22;32398;49.112;8.598;2023-05-19T06:11:56;12.30;70.20
46139;DHT22;32398;49.112;8.598;2023-05-19T06:14:22;12.30;70.30
46139;DHT22;32398;49.112;8.598;2023-05-19T06:16:49;12.30;71.00
46139;DHT22;32398;49.112;8.598;2023-05-19T06:19:16;12.30;70.30
46139;DHT22;32398;49.112;8.598;2023-05-19T06:21:45;12.30;70.30
46139;DHT22;32398;49.112;8.598;2023-05-19T06:24:11;12.30;70.40
46139;DHT22;32398;49.112;8.598;2023-05-19T06:26:38;12.30;70.40
46139;DHT22;32398;49.112;8.598;2023-05-19T06:29:04;12.30;70.50
46139;DHT22;32398;49.112;8.598;2023-05-19T06:31:31;12.30;70.40
46139;DHT22;32398;49.112;8.598;2023-05-19T06:33:58;12.30;70.50
46139;DHT22;32398;49.112;8.598;2023-05-19T06:36:25;12.30;70.40
46139;DHT22;32398;49.112;8.598;2023-05-19T06:38:52;12.40;70.50
46139;DHT22;32398;49.112;8.598;2023-05-19T06:41:19;12.30;70.50
46139;DHT22;32398;49.112;8.598;2023-05-19T06:43:46;12.40;70.50
46139;DHT22;32398;49.112;8.598;2023-05-19T06:46:12;12.40;70.50
46139;DHT22;32398;49.112;8.598;2023-05-19T06:48:41;12.40;70.50
46139;DHT22;32398;49.112;8.598;2023-05-19T06:51:08;12.40;70.40
46139;DHT22;32398;49.112;8.598;2023-05-19T06:53:35;12.40;70.30
46139;DHT22;32398;49.112;8.598;2023-05-19T06:56:03;12.40;70.20
46139;DHT22;32398;49.112;8.598;2023-05-19T06:58:30;12.40;70.20
46139;DHT22;32398;49.112;8.598;2023-05-19T07:00:56;12.40;70.20
46139;DHT22;32398;49.112;8.598;2023-05-19T07:03:23;12.50;70.30
46139;DHT22;32398;49.112;8.598;2023-05-19T07:05:50;12.50;70.20
46139;DHT22;32398;49.112;8.598;2023-05-19T07:08:16;12.50;70.10
46139;DHT22;32398;49.112;8.598;2023-05-19T07:10:43;12.60;70.10
46139;DHT22;32398;49.112;8.598;2023-05-19T07:13:11;12.60;70.00
46139;DHT22;32398;49.112;8.598;2023-05-19T07:15:37;12.60;70.20
46139;DHT22;32398;49.112;8.598;2023-05-19T07:18:04;12.60;70.20
46139;DHT22;32398;49.112;8.598;2023-05-19T07:20:30;12.60;70.10
46139;DHT22;32398;49.112;8.598;2023-05-19T07:22:57;12.60;70.00
46139;DHT22;32398;49.112;8.598;2023-05-19T07:25:23;12.60;70.00
46139;DHT22;32398;49.112;8.598;2023-05-19T07:27:52;12.70;70.10
46139;DHT22;32398;49.112;8.598;2023-05-19T07:30:20;12.60;70.00
46139;DHT22;32398;49.112;8.598;2023-05-19T07:32:47;12.70;70.20
46139;DHT22;32398;49.112;8.598;2023-05-19T07:35:13;12.70;70.20
46139;DHT22;32398;49.112;8.598;2023-05-19T07:37:40;12.70;70.30
46139;DHT22;32398;49.112;8.598;2023-05-19T07:40:07;12.80;70.40
46139;DHT22;32398;49.112;8.598;2023-05-19T07:42:34;12.70;70.20
46139;DHT22;32398;49.112;8.598;2023-05-19T07:45:00;12.80;70.10
46139;DHT22;32398;49.112;8.598;2023-05-19T07:47:29;12.80;70.20
46139;DHT22;32398;49.112;8.598;2023-05-19T07:49:56;12.80;70.40
46139;DHT22;32398;49.112;8.598;2023-05-19T07:52:22;12.80;70.20
46139;DHT22;32398;49.112;8.598;2023-05-19T07:54:49;12.80;70.20
46139;DHT22;32398;49.112;8.598;2023-05-19T07:57:15;12.80;70.20
46139;DHT22;32398;49.112;8.598;2023-05-19T07:59:43;12.90;70.20
46139;DHT22;32398;49.112;8.598;2023-05-19T08:02:09;12.90;70.20
46139;DHT22;32398;49.112;8.598;2023-05-19T08:04:37;13.00;70.10
46139;DHT22;32398;49.112;8.598;2023-05-19T08:07:04;13.00;70.00
46139;DHT22;32398;49.112;8.598;2023-05-19T08:09:30;13.00;70.00
46139;DHT22;32398;49.112;8.598;2023-05-19T08:11:57;13.00;69.90
46139;DHT22;32398;49.112;8.598;2023-05-19T08:14:25;13.10;69.80
46139;DHT22;32398;49.112;8.598;2023-05-19T08:16:52;13.10;69.70
46139;DHT22;32398;49.112;8.598;2023-05-19T08:19:18;13.10;69.70
46139;DHT22;32398;49.112;8.598;2023-05-19T08:21:46;13.20;69.80
46139;DHT22;32398;49.112;8.598;2023-05-19T08:24:13;13.20;69.50
46139;DHT22;32398;49.112;8.598;2023-05-19T08:26:40;13.20;69.40
46139;DHT22;32398;49.112;8.598;2023-05-19T08:29:07;13.20;69.30
46139;DHT22;32398;49.112;8.598;2023-05-19T08:31:33;13.30;69.30
46139;DHT22;32398;49.112;8.598;2023-05-19T08:34:00;13.30;69.10
46139;DHT22;32398;49.112;8.598;2023-05-19T08:36:26;13.30;69.00
46139;DHT22;32398;49.112;8.598;2023-05-19T08:38:55;13.40;68.80
46139;DHT22;32398;49.112;8.598;2023-05-19T08:41:21;13.40;68.70
46139;DHT22;32398;49.112;8.598;2023-05-19T08:43:48;13.40;68.70
46139;DHT22;32398;49.112;8.598;2023-05-19T08:46:15;13.50;68.50
46139;DHT22;32398;49.112;8.598;2023-05-19T08:48:41;13.50;68.40
46139;DHT22;32398;49.112;8.598;2023-05-19T08:51:10;13.50;68.30
46139;DHT22;32398;49.112;8.598;2023-05-19T08:53:39;13.60;68.10
46139;DHT22;32398;49.112;8.598;2023-05-19T08:56:10;13.60;67.90
46139;DHT22;32398;49.112;8.598;2023-05-19T08:58:38;13.60;67.60
46139;DHT22;32398;49.112;8.598;2023-05-19T09:01:06;13.70;67.50
46139;DHT22;32398;49.112;8.598;2023-05-19T09:03:32;13.70;67.50
46139;DHT22;32398;49.112;8.598;2023-05-19T09:06:04;13.80;67.30
46139;DHT22;32398;49.112;8.598;2023-05-19T09:08:30;13.80;67.00
46139;DHT22;32398;49.112;8.598;2023-05-19T09:10:57;13.90;66.70
46139;DHT22;32398;49.112;8.598;2023-05-19T09:13:24;14.00;66.50
46139;DHT22;32398;49.112;8.598;2023-05-19T09:15:51;14.00;66.10
46139;DHT22;32398;49.112;8.598;2023-05-19T09:18:18;14.00;65.80
46139;DHT22;32398;49.112;8.598;2023-05-19T09:20:45;14.10;66.00
46139;DHT22;32398;49.112;8.598;2023-05-19T09:23:11;14.20;65.60
46139;DHT22;32398;49.112;8.598;2023-05-19T09:25:45;14.20;65.40
46139;DHT22;32398;49.112;8.598;2023-05-19T09:28:11;14.20;65.30
46139;DHT22;32398;49.112;8.598;2023-05-19T09:30:39;14.30;65.30
46139;DHT22;32398;49.112;8.598;2023-05-19T09:33:06;14.40;64.70
46139;DHT22;32398;49.112;8.598;2023-05-19T09:35:34;14.40;64.20
46139;DHT22;32398;49.112;8.598;2023-05-19T09:38:00;14.40;64.00
46139;DHT22;32398;49.112;8.598;2023-05-19T09:40:27;14.50;63.80
46139;DHT22;32398;49.112;8.598;2023-05-19T09:42:54;14.60;63.60
46139;DHT22;32398;49.112;8.598;2023-05-19T09:45:20;14.60;63.30
46139;DHT22;32398;49.112;8.598;2023-05-19T09:47:48;14.70;63.00
46139;DHT22;32398;49.112;8.598;2023-05-19T09:50:15;14.70;63.40
46139;DHT22;32398;49.112;8.598;2023-05-19T09:52:42;14.70;62.40
46139;DHT22;32398;49.112;8.598;2023-05-19T09:55:10;14.80;62.20
46139;DHT22;32398;49.112;8.598;2023-05-19T09:57:37;14.90;61.90
46139;DHT22;32398;49.112;8.598;2023-05-19T10:00:06;14.90;61.90
46139;DHT22;32398;49.112;8.598;2023-05-19T10:02:40;15.00;61.80
46139;DHT22;32398;49.112;8.598;2023-05-19T10:05:08;15.00;61.80
46139;DHT22;32398;49.112;8.598;2023-05-19T10:07:35;15.10;61.60
46139;DHT22;32398;49.112;8.598;2023-05-19T10:10:02;15.20;61.60
46139;DHT22;32398;49.112;8.598;2023-05-19T10:12:29;15.20;61.50
46139;DHT22;32398;49.112;8.598;2023-05-19T10:14:57;15.30;61.60
46139;DHT22;32398;49.112;8.598;2023-05-19T10:17:24;15.30;61.60
46139;DHT22;32398;49.112;8.598;2023-05-19T10:19:51;15.40;61.70
46139;DHT22;32398;49.112;8.598;2023-05-19T10:22:20;15.40;61.80
46139;DHT22;32398;49.112;8.598;2023-05-19T10:24:46;15.50;61.70
46139;DHT22;32398;49.112;8.598;2023-05-19T10:27:13;15.60;61.60
46139;DHT22;32398;49.112;8.598;2023-05-19T10:29:42;15.60;61.70
46139;DHT22;32398;49.112;8.598;2023-05-19T10:32:09;15.60;61.60
46139;DHT22;32398;49.112;8.598;2023-05-19T10:34:50;15.70;61.60
46139;DHT22;32398;49.112;8.598;2023-05-19T10:37:23;15.80;61.60
46139;DHT22;32398;49.112;8.598;2023-05-19T10:39:54;15.80;61.60
46139;DHT22;32398;49.112;8.598;2023-05-19T10:42:24;15.90;61.60
46139;DHT22;32398;49.112;8.598;2023-05-19T10:44:57;16.00;61.40
46139;DHT22;32398;49.112;8.598;2023-05-19T10:47:28;16.00;61.00
46139;DHT22;32398;49.112;8.598;2023-05-19T10:49:54;16.00;60.70
46139;DHT22;32398;49.112;8.598;2023-05-19T10:52:23;16.10;60.80
46139;DHT22;32398;49.112;8.598;2023-05-19T10:54:50;16.20;60.80
46139;DHT22;32398;49.112;8.598;2023-05-19T10:57:19;16.20;60.80
46139;DHT22;32398;49.112;8.598;2023-05-19T10:59:46;16.30;60.90
46139;DHT22;32398;49.112;8.598;2023-05-19T11:04:55;16.30;61.10
46139;DHT22;32398;49.112;8.598;2023-05-19T11:07:33;16.30;60.80
46139;DHT22;32398;49.112;8.598;2023-05-19T11:10:03;16.40;60.70
46139;DHT22;32398;49.112;8.598;2023-05-19T11:12:30;16.50;61.00
46139;DHT22;32398;49.112;8.598;2023-05-19T11:15:05;16.50;60.90
46139;DHT22;32398;49.112;8.598;2023-05-19T11:17:33;16.50;60.70
46139;DHT22;32398;49.112;8.598;2023-05-19T11:20:00;16.60;60.70
46139;DHT22;32398;49.112;8.598;2023-05-19T11:22:26;16.60;60.70
46139;DHT22;32398;49.112;8.598;2023-05-19T11:24:54;16.70;60.70
46139;DHT22;32398;49.112;8.598;2023-05-19T11:27:25;16.70;60.60
46139;DHT22;32398;49.112;8.598;2023-05-19T11:29:52;16.70;60.20
46139;DHT22;32398;49.112;8.598;2023-05-19T11:32:19;16.80;60.10
46139;DHT22;32398;49.112;8.598;2023-05-19T11:34:47;16.90;60.00
46139;DHT22;32398;49.112;8.598;2023-05-19T11:37:14;16.90;60.00
46139;DHT22;32398;49.112;8.598;2023-05-19T11:39:40;17.00;59.90
46139;DHT22;32398;49.112;8.598;2023-05-19T11:42:09;17.10;60.50
46139;DHT22;32398;49.112;8.598;2023-05-19T11:44:36;17.10;59.70
46139;DHT22;32398;49.112;8.598;2023-05-19T11:47:03;17.10;59.70
46139;DHT22;32398;49.112;8.598;2023-05-19T11:49:29;17.20;59.70
46139;DHT22;32398;49.112;8.598;2023-05-19T11:51:56;17.30;59.50
46139;DHT22;32398;49.112;8.598;2023-05-19T11:54:27;17.30;59.40
46139;DHT22;32398;49.112;8.598;2023-05-19T11:56:54;17.40;59.40
46139;DHT22;32398;49.112;8.598;2023-05-19T11:59:29;17.40;59.50
46139;DHT22;32398;49.112;8.598;2023-05-19T12:01:57;17.40;59.80
46139;DHT22;32398;49.112;8.598;2023-05-19T12:04:23;17.50;59.70
46139;DHT22;32398;49.112;8.598;2023-05-19T12:06:50;17.50;59.60
46139;DHT22;32398;49.112;8.598;2023-05-19T12:09:17;17.40;59.40
46139;DHT22;32398;49.112;8.598;2023-05-19T12:11:44;17.50;59.50
46139;DHT22;32398;49.112;8.598;2023-05-19T12:14:10;17.50;59.80
46139;DHT22;32398;49.112;8.598;2023-05-19T12:16:38;17.50;60.10
46139;DHT22;32398;49.112;8.598;2023-05-19T12:19:07;17.50;59.80
46139;DHT22;32398;49.112;8.598;2023-05-19T12:21:33;17.50;59.70
46139;DHT22;32398;49.112;8.598;2023-05-19T12:24:00;17.50;59.80
46139;DHT22;32398;49.112;8.598;2023-05-19T12:26:27;17.50;59.80
46139;DHT22;32398;49.112;8.598;2023-05-19T12:28:53;17.50;60.20
46139;DHT22;32398;49.112;8.598;2023-05-19T12:31:20;17.50;60.80
46139;DHT22;32398;49.112;8.598;2023-05-19T12:33:49;17.50;60.70
46139;DHT22;32398;49.112;8.598;2023-05-19T12:36:16;17.50;60.80
46139;DHT22;32398;49.112;8.598;2023-05-19T12:38:43;17.60;60.90
46139;DHT22;32398;49.112;8.598;2023-05-19T12:41:09;17.60;60.90
46139;DHT22;32398;49.112;8.598;2023-05-19T12:43:36;17.60;60.60
46139;DHT22;32398;49.112;8.598;2023-05-19T12:46:09;17.60;60.20
46139;DHT22;32398;49.112;8.598;2023-05-19T12:48:38;17.60;60.40
46139;DHT22;32398;49.112;8.598;2023-05-19T12:51:07;17.60;60.10
46139;DHT22;32398;49.112;8.598;2023-05-19T12:53:35;17.60;59.90
46139;DHT22;32398;49.112;8.598;2023-05-19T12:56:08;17.60;60.20
46139;DHT22;32398;49.112;8.598;2023-05-19T12:58:35;17.60;60.10
46139;DHT22;32398;49.112;8.598;2023-05-19T13:01:03;17.60;60.70
46139;DHT22;32398;49.112;8.598;2023-05-19T13:03:29;17.70;60.30
46139;DHT22;32398;49.112;8.598;2023-05-19T13:05:56;17.70;60.20
46139;DHT22;32398;49.112;8.598;2023-05-19T13:08:25;17.70;60.80
46139;DHT22;32398;49.112;8.598;2023-05-19T13:10:52;17.70;61.00
46139;DHT22;32398;49.112;8.598;2023-05-19T13:13:18;17.70;60.30
46139;DHT22;32398;49.112;8.598;2023-05-19T13:15:46;17.70;60.30
46139;DHT22;32398;49.112;8.598;2023-05-19T13:18:13;17.80;60.20
46139;DHT22;32398;49.112;8.598;2023-05-19T13:20:40;17.80;60.20
46139;DHT22;32398;49.112;8.598;2023-05-19T13:23:08;17.80;60.30
46139;DHT22;32398;49.112;8.598;2023-05-19T13:25:36;17.90;60.80
46139;DHT22;32398;49.112;8.598;2023-05-19T13:28:03;17.90;61.00
46139;DHT22;32398;49.112;8.598;2023-05-19T13:30:30;17.90;61.20
46139;DHT22;32398;49.112;8.598;2023-05-19T13:32:56;17.90;61.30
46139;DHT22;32398;49.112;8.598;2023-05-19T13:35:23;18.00;60.50
46139;DHT22;32398;49.112;8.598;2023-05-19T13:37:50;18.00;60.90
46139;DHT22;32398;49.112;8.598;2023-05-19T13:40:16;17.90;60.80
46139;DHT22;32398;49.112;8.598;2023-05-19T13:42:44;18.00;60.70
46139;DHT22;32398;49.112;8.598;2023-05-19T13:45:13;18.00;61.50
46139;DHT22;32398;49.112;8.598;2023-05-19T13:47:39;18.00;60.90
46139;DHT22;32398;49.112;8.598;2023-05-19T13:50:06;18.00;61.30
46139;DHT22;32398;49.112;8.598;2023-05-19T13:52:33;18.00;61.10
46139;DHT22;32398;49.112;8.598;2023-05-19T13:54:59;18.00;61.10
46139;DHT22;32398;49.112;8.598;2023-05-19T13:57:26;18.10;61.20
46139;DHT22;32398;49.112;8.598;2023-05-19T13:59:54;18.10;60.70
46139;DHT22;32398;49.112;8.598;2023-05-19T14:02:21;18.10;60.50
46139;DHT22;32398;49.112;8.598;2023-05-19T14:04:47;18.10;61.10
46139;DHT22;32398;49.112;8.598;2023-05-19T14:07:14;18.10;61.70
46139;DHT22;32398;49.112;8.598;2023-05-19T14:09:41;18.10;61.00
46139;DHT22;32398;49.112;8.598;2023-05-19T14:12:08;18.10;61.10
46139;DHT22;32398;49.112;8.598;2023-05-19T14:14:36;18.10;60.50
46139;DHT22;32398;49.112;8.598;2023-05-19T14:17:04;18.10;60.60
46139;DHT22;32398;49.112;8.598;2023-05-19T14:19:30;18.10;60.40
46139;DHT22;32398;49.112;8.598;2023-05-19T14:21:57;18.10;60.20
46139;DHT22;32398;49.112;8.598;2023-05-19T14:24:24;18.10;60.80
46139;DHT22;32398;49.112;8.598;2023-05-19T14:26:51;18.10;60.50
46139;DHT22;32398;49.112;8.598;2023-05-19T14:29:18;18.20;60.30
46139;DHT22;32398;49.112;8.598;2023-05-19T14:31:44;18.10;61.10
46139;DHT22;32398;49.112;8.598;2023-05-19T14:34:12;18.20;60.40
46139;DHT22;32398;49.112;8.598;2023-05-19T14:36:42;18.20;60.40
46139;DHT22;32398;49.112;8.598;2023-05-19T14:39:08;18.20;60.80
46139;DHT22;32398;49.112;8.598;2023-05-19T14:41:35;18.20;60.80
46139;DHT22;32398;49.112;8.598;2023-05-19T14:44:01;18.20;61.00
46139;DHT22;32398;49.112;8.598;2023-05-19T14:46:28;18.20;60.80
46139;DHT22;32398;49.112;8.598;2023-05-19T14:48:54;18.20;60.80
46139;DHT22;32398;49.112;8.598;2023-05-19T14:51:22;18.20;60.50
46139;DHT22;32398;49.112;8.598;2023-05-19T14:53:49;18.20;60.60
46139;DHT22;32398;49.112;8.598;2023-05-19T14:56:15;18.20;60.20
46139;DHT22;32398;49.112;8.598;2023-05-19T14:58:42;18.20;60.50
46139;DHT22;32398;49.112;8.598;2023-05-19T15:01:08;18.20;60.70
46139;DHT22;32398;49.112;8.598;2023-05-19T15:03:35;18.20;61.60
46139;DHT22;32398;49.112;8.598;2023-05-19T15:06:01;18.20;61.90
46139;DHT22;32398;49.112;8.598;2023-05-19T15:08:29;18.20;62.00
46139;DHT22;32398;49.112;8.598;2023-05-19T15:10:56;18.20;61.90
46139;DHT22;32398;49.112;8.598;2023-05-19T15:13:23;18.20;61.70
46139;DHT22;32398;49.112;8.598;2023-05-19T15:15:52;18.20;61.80
46139;DHT22;32398;49.112;8.598;2023-05-19T15:18:18;18.20;61.10
46139;DHT22;32398;49.112;8.598;2023-05-19T15:20:45;18.20;60.50
46139;DHT22;32398;49.112;8.598;2023-05-19T15:23:13;18.20;61.00
46139;DHT22;32398;49.112;8.598;2023-05-19T15:25:41;18.20;60.70
46139;DHT22;32398;49.112;8.598;2023-05-19T15:28:09;18.20;60.80
46139;DHT22;32398;49.112;8.598;2023-05-19T15:30:36;18.20;61.10
46139;DHT22;32398;49.112;8.598;2023-05-19T15:33:04;18.20;61.30